sensor_id;sensor_type;location;lat;lon;timestamp;pressure;altitude;pressure_sealevel;temperature
27986;BMP280;15453;53.692;10.168;2023-06-14T00:00:09;101575.66;;;22.16
27986;BMP280;15453;53.692;10.168;2023-06-14T00:02:35;101579.59;;;22.15
27986;BMP280;15453;53.692;10.168;2023-06-14T00:05:00;101578.25;;;22.13
27986;BMP280;15453;53.692;10.168;2023-06-14T00:07:36;101584.97;;;22.12
27986;BMP280;15453;53.692;10.168;2023-06-14T00:10:04;101583.63;;;22.09
27986;BMP280;15453;53.692;10.168;2023-06-14T00:12:30;101590.00;;;22.09
27986;BMP280;15453;53.692;10.168;2023-06-14T00:14:56;101585.56;;;22.08
27986;BMP280;15453;53.692;10.168;2023-06-14T00:17:21;101591.75;;;22.05
27986;BMP280;15453;53.692;10.168;2023-06-14T00:19:47;101585.38;;;22.05
27986;BMP280;15453;53.692;10.168;2023-06-14T00:22:12;101589.25;;;22.04
27986;BMP280;15453;53.692;10.168;2023-06-14T00:24:38;101605.69;;;22.05
27986;BMP280;15453;53.692;10.168;2023-06-14T00:27:03;101605.69;;;22.05
27986;BMP280;15453;53.692;10.168;2023-06-14T00:29:28;101610.88;;;21.98
27986;BMP280;15453;53.692;10.168;2023-06-14T00:31:54;101610.88;;;21.98
27986;BMP280;15453;53.692;10.168;2023-06-14T00:34:19;101601.19;;;21.91
27986;BMP280;15453;53.692;10.168;2023-06-14T00:36:44;101615.25;;;21.86
27986;BMP280;15453;53.692;10.168;2023-06-14T00:39:09;101615.25;;;21.86
27986;BMP280;15453;53.692;10.168;2023-06-14T00:41:35;101609.84;;;21.76
27986;BMP280;15453;53.692;10.168;2023-06-14T00:44:00;101616.84;;;21.73
27986;BMP280;15453;53.692;10.168;2023-06-14T00:46:25;101604.91;;;21.68
27986;BMP280;15453;53.692;10.168;2023-06-14T00:48:51;101609.72;;;21.62
27986;BMP280;15453;53.692;10.168;2023-06-14T00:51:16;101612.00;;;21.60
27986;BMP280;15453;53.692;10.168;2023-06-14T00:53:42;101611.25;;;21.55
27986;BMP280;15453;53.692;10.168;2023-06-14T00:56:12;101619.97;;;21.48
27986;BMP280;15453;53.692;10.168;2023-06-14T00:58:38;101619.97;;;21.48
27986;BMP280;15453;53.692;10.168;2023-06-14T01:01:03;101616.72;;;21.41
27986;BMP280;15453;53.692;10.168;2023-06-14T01:03:29;101614.81;;;21.37
27986;BMP280;15453;53.692;10.168;2023-06-14T01:11:54;101613.91;;;21.23
27986;BMP280;15453;53.692;10.168;2023-06-14T01:14:21;101619.56;;;21.18
27986;BMP280;15453;53.692;10.168;2023-06-14T01:16:47;101622.66;;;21.16
27986;BMP280;15453;53.692;10.168;2023-06-14T01:19:13;101616.31;;;21.11
27986;BMP280;15453;53.692;10.168;2023-06-14T01:21:40;101621.09;;;21.05
27986;BMP280;15453;53.692;10.168;2023-06-14T01:24:06;101629.53;;;21.00
27986;BMP280;15453;53.692;10.168;2023-06-14T01:26:32;101618.44;;;20.95
27986;BMP280;15453;53.692;10.168;2023-06-14T01:28:58;101622.97;;;20.91
27986;BMP280;15453;53.692;10.168;2023-06-14T01:31:24;101623.81;;;20.87
27986;BMP280;15453;53.692;10.168;2023-06-14T01:33:51;101628.63;;;20.81
27986;BMP280;15453;53.692;10.168;2023-06-14T01:36:18;101629.22;;;20.78
27986;BMP280;15453;53.692;10.168;2023-06-14T01:38:46;101618.94;;;20.74
27986;BMP280;15453;53.692;10.168;2023-06-14T01:41:14;101618.13;;;20.73
27986;BMP280;15453;53.692;10.168;2023-06-14T01:43:41;101618.13;;;20.73
27986;BMP280;15453;53.692;10.168;2023-06-14T01:46:08;101621.78;;;20.69
27986;BMP280;15453;53.692;10.168;2023-06-14T01:48:34;101614.28;;;20.69
27986;BMP280;15453;53.692;10.168;2023-06-14T01:50:59;101618.16;;;20.68
27986;BMP280;15453;53.692;10.168;2023-06-14T01:53:25;101630.69;;;20.71
27986;BMP280;15453;53.692;10.168;2023-06-14T01:55:50;101630.69;;;20.71
27986;BMP280;15453;53.692;10.168;2023-06-14T01:58:19;101625.16;;;20.66
27986;BMP280;15453;53.692;10.168;2023-06-14T02:00:44;101625.44;;;20.64
27986;BMP280;15453;53.692;10.168;2023-06-14T02:03:10;101629.66;;;20.62
27986;BMP280;15453;53.692;10.168;2023-06-14T02:05:36;101635.84;;;20.59
27986;BMP280;15453;53.692;10.168;2023-06-14T02:08:03;101628.06;;;20.56
27986;BMP280;15453;53.692;10.168;2023-06-14T02:10:29;101627.03;;;20.47
27986;BMP280;15453;53.692;10.168;2023-06-14T02:12:54;101627.03;;;20.47
27986;BMP280;15453;53.692;10.168;2023-06-14T02:15:19;101619.84;;;20.41
27986;BMP280;15453;53.692;10.168;2023-06-14T02:17:47;101632.69;;;20.37
27986;BMP280;15453;53.692;10.168;2023-06-14T02:20:13;101629.69;;;20.33
27986;BMP280;15453;53.692;10.168;2023-06-14T02:22:38;101628.59;;;20.29
27986;BMP280;15453;53.692;10.168;2023-06-14T02:25:04;101629.19;;;20.26
27986;BMP280;15453;53.692;10.168;2023-06-14T02:27:29;101630.59;;;20.24
27986;BMP280;15453;53.692;10.168;2023-06-14T02:29:54;101624.78;;;20.20
27986;BMP280;15453;53.692;10.168;2023-06-14T02:32:20;101624.78;;;20.20
27986;BMP280;15453;53.692;10.168;2023-06-14T02:34:45;101632.91;;;20.17
27986;BMP280;15453;53.692;10.168;2023-06-14T02:37:15;101624.28;;;20.13
27986;BMP280;15453;53.692;10.168;2023-06-14T02:39:40;101628.19;;;20.12
27986;BMP280;15453;53.692;10.168;2023-06-14T02:42:05;101626.00;;;20.09
27986;BMP280;15453;53.692;10.168;2023-06-14T02:44:31;101629.03;;;20.08
27986;BMP280;15453;53.692;10.168;2023-06-14T02:46:57;101631.00;;;20.07
27986;BMP280;15453;53.692;10.168;2023-06-14T02:49:23;101626.84;;;20.05
27986;BMP280;15453;53.692;10.168;2023-06-14T02:51:49;101630.19;;;20.02
27986;BMP280;15453;53.692;10.168;2023-06-14T02:54:15;101636.06;;;20.00
27986;BMP280;15453;53.692;10.168;2023-06-14T02:56:40;101642.75;;;19.99
27986;BMP280;15453;53.692;10.168;2023-06-14T02:59:08;101642.75;;;19.99
27986;BMP280;15453;53.692;10.168;2023-06-14T03:01:34;101648.88;;;19.96
27986;BMP280;15453;53.692;10.168;2023-06-14T03:04:01;101645.56;;;19.94
27986;BMP280;15453;53.692;10.168;2023-06-14T03:06:28;101648.63;;;19.93
27986;BMP280;15453;53.692;10.168;2023-06-14T03:08:56;101643.63;;;19.90
27986;BMP280;15453;53.692;10.168;2023-06-14T03:11:22;101652.25;;;19.88
27986;BMP280;15453;53.692;10.168;2023-06-14T03:13:47;101646.47;;;19.85
27986;BMP280;15453;53.692;10.168;2023-06-14T03:16:12;101655.09;;;19.83
27986;BMP280;15453;53.692;10.168;2023-06-14T03:18:38;101648.44;;;19.79
27986;BMP280;15453;53.692;10.168;2023-06-14T03:21:03;101654.56;;;19.76
27986;BMP280;15453;53.692;10.168;2023-06-14T03:23:29;101659.59;;;19.74
27986;BMP280;15453;53.692;10.168;2023-06-14T03:25:54;101655.44;;;19.72
27986;BMP280;15453;53.692;10.168;2023-06-14T03:28:20;101659.34;;;19.71
27986;BMP280;15453;53.692;10.168;2023-06-14T03:30:46;101659.34;;;19.71
27986;BMP280;15453;53.692;10.168;2023-06-14T03:33:11;101661.84;;;19.67
27986;BMP280;15453;53.692;10.168;2023-06-14T03:35:36;101663.28;;;19.65
27986;BMP280;15453;53.692;10.168;2023-06-14T03:38:02;101663.28;;;19.65
27986;BMP280;15453;53.692;10.168;2023-06-14T03:40:28;101655.78;;;19.60
27986;BMP280;15453;53.692;10.168;2023-06-14T03:42:54;101659.69;;;19.59
27986;BMP280;15453;53.692;10.168;2023-06-14T03:45:20;101657.75;;;19.60
27986;BMP280;15453;53.692;10.168;2023-06-14T03:47:45;101670.81;;;19.59
27986;BMP280;15453;53.692;10.168;2023-06-14T03:50:11;101668.31;;;19.58
27986;BMP280;15453;53.692;10.168;2023-06-14T03:52:36;101671.09;;;19.58
27986;BMP280;15453;53.692;10.168;2023-06-14T03:55:02;101670.28;;;19.57
27986;BMP280;15453;53.692;10.168;2023-06-14T03:57:29;101664.16;;;19.55
27986;BMP280;15453;53.692;10.168;2023-06-14T03:59:54;101674.97;;;19.57
27986;BMP280;15453;53.692;10.168;2023-06-14T04:02:20;101677.75;;;19.57
27986;BMP280;15453;53.692;10.168;2023-06-14T04:04:45;101681.66;;;19.56
27986;BMP280;15453;53.692;10.168;2023-06-14T04:07:11;101688.06;;;19.56
27986;BMP280;15453;53.692;10.168;2023-06-14T04:09:37;101711.38;;;19.60
27986;BMP280;15453;53.692;10.168;2023-06-14T04:12:03;101711.38;;;19.60
27986;BMP280;15453;53.692;10.168;2023-06-14T04:14:29;101712.50;;;19.59
27986;BMP280;15453;53.692;10.168;2023-06-14T04:16:56;101705.00;;;19.60
27986;BMP280;15453;53.692;10.168;2023-06-14T04:19:21;101718.63;;;19.61
27986;BMP280;15453;53.692;10.168;2023-06-14T04:21:46;101719.69;;;19.65
27986;BMP280;15453;53.692;10.168;2023-06-14T04:24:12;101723.00;;;19.67
27986;BMP280;15453;53.692;10.168;2023-06-14T04:26:42;101730.22;;;19.68
27986;BMP280;15453;53.692;10.168;2023-06-14T04:29:10;101726.88;;;19.71
27986;BMP280;15453;53.692;10.168;2023-06-14T04:31:42;101723.81;;;19.73
27986;BMP280;15453;53.692;10.168;2023-06-14T04:34:08;101719.63;;;19.75
27986;BMP280;15453;53.692;10.168;2023-06-14T04:36:34;101723.78;;;19.78
27986;BMP280;15453;53.692;10.168;2023-06-14T04:39:02;101727.13;;;19.80
27986;BMP280;15453;53.692;10.168;2023-06-14T04:41:28;101724.06;;;19.81
27986;BMP280;15453;53.692;10.168;2023-06-14T04:43:57;101727.09;;;19.85
27986;BMP280;15453;53.692;10.168;2023-06-14T04:46:23;101720.41;;;19.86
27986;BMP280;15453;53.692;10.168;2023-06-14T04:48:49;101723.75;;;19.88
27986;BMP280;15453;53.692;10.168;2023-06-14T04:51:15;101722.63;;;19.89
27986;BMP280;15453;53.692;10.168;2023-06-14T04:53:41;101733.94;;;19.97
27986;BMP280;15453;53.692;10.168;2023-06-14T04:56:06;101733.94;;;19.97
27986;BMP280;15453;53.692;10.168;2023-06-14T04:58:32;101732.28;;;19.96
27986;BMP280;15453;53.692;10.168;2023-06-14T05:00:57;101728.09;;;19.99
27986;BMP280;15453;53.692;10.168;2023-06-14T05:03:25;101718.34;;;20.01
27986;BMP280;15453;53.692;10.168;2023-06-14T05:05:51;101726.13;;;20.04
27986;BMP280;15453;53.692;10.168;2023-06-14T05:08:18;101722.25;;;20.10
27986;BMP280;15453;53.692;10.168;2023-06-14T05:10:43;101722.25;;;20.10
27986;BMP280;15453;53.692;10.168;2023-06-14T05:13:08;101726.97;;;20.10
27986;BMP280;15453;53.692;10.168;2023-06-14T05:15:35;101715.56;;;20.11
27986;BMP280;15453;53.692;10.168;2023-06-14T05:18:01;101722.47;;;20.14
27986;BMP280;15453;53.692;10.168;2023-06-14T05:20:26;101717.72;;;20.14
27986;BMP280;15453;53.692;10.168;2023-06-14T05:22:54;101709.38;;;20.14
27986;BMP280;15453;53.692;10.168;2023-06-14T05:25:20;101724.69;;;20.17
27986;BMP280;15453;53.692;10.168;2023-06-14T05:27:46;101713.81;;;20.20
27986;BMP280;15453;53.692;10.168;2023-06-14T05:30:13;101712.69;;;20.21
27986;BMP280;15453;53.692;10.168;2023-06-14T05:32:38;101716.31;;;20.22
27986;BMP280;15453;53.692;10.168;2023-06-14T05:35:04;101737.97;;;20.25
27986;BMP280;15453;53.692;10.168;2023-06-14T05:37:29;101729.84;;;20.33
27986;BMP280;15453;53.692;10.168;2023-06-14T05:39:56;101729.84;;;20.33
27986;BMP280;15453;53.692;10.168;2023-06-14T05:42:21;101732.63;;;20.33
27986;BMP280;15453;53.692;10.168;2023-06-14T05:44:46;101729.28;;;20.36
27986;BMP280;15453;53.692;10.168;2023-06-14T05:47:11;101722.81;;;20.41
27986;BMP280;15453;53.692;10.168;2023-06-14T05:49:37;101719.47;;;20.44
27986;BMP280;15453;53.692;10.168;2023-06-14T05:52:02;101726.94;;;20.48
27986;BMP280;15453;53.692;10.168;2023-06-14T05:54:28;101725.25;;;20.52
27986;BMP280;15453;53.692;10.168;2023-06-14T05:56:53;101729.09;;;20.56
27986;BMP280;15453;53.692;10.168;2023-06-14T05:59:19;101733.78;;;20.61
27986;BMP280;15453;53.692;10.168;2023-06-14T06:01:44;101734.56;;;20.66
27986;BMP280;15453;53.692;10.168;2023-06-14T06:04:09;101739.56;;;20.69
27986;BMP280;15453;53.692;10.168;2023-06-14T06:06:35;101743.13;;;20.75
27986;BMP280;15453;53.692;10.168;2023-06-14T06:09:00;101743.09;;;20.80
27986;BMP280;15453;53.692;10.168;2023-06-14T06:11:26;101745.81;;;20.85
27986;BMP280;15453;53.692;10.168;2023-06-14T06:13:51;101742.97;;;20.90
27986;BMP280;15453;53.692;10.168;2023-06-14T06:16:16;101749.38;;;20.95
27986;BMP280;15453;53.692;10.168;2023-06-14T06:18:41;101747.66;;;20.99
27986;BMP280;15453;53.692;10.168;2023-06-14T06:21:07;101742.00;;;21.04
27986;BMP280;15453;53.692;10.168;2023-06-14T06:23:32;101742.81;;;21.10
27986;BMP280;15453;53.692;10.168;2023-06-14T06:25:57;101739.44;;;21.13
27986;BMP280;15453;53.692;10.168;2023-06-14T06:28:23;101738.53;;;21.17
27986;BMP280;15453;53.692;10.168;2023-06-14T06:30:48;101740.97;;;21.24
27986;BMP280;15453;53.692;10.168;2023-06-14T06:33:13;101745.38;;;21.30
27986;BMP280;15453;53.692;10.168;2023-06-14T06:35:39;101742.50;;;21.35
27986;BMP280;15453;53.692;10.168;2023-06-14T06:38:04;101741.63;;;21.39
27986;BMP280;15453;53.692;10.168;2023-06-14T06:40:30;101744.59;;;21.48
27986;BMP280;15453;53.692;10.168;2023-06-14T06:42:55;101741.44;;;21.54
27986;BMP280;15453;53.692;10.168;2023-06-14T06:45:20;101745.00;;;21.60
27986;BMP280;15453;53.692;10.168;2023-06-14T06:47:46;101759.06;;;21.73
27986;BMP280;15453;53.692;10.168;2023-06-14T06:50:11;101759.06;;;21.73
27986;BMP280;15453;53.692;10.168;2023-06-14T06:52:37;101760.44;;;21.76
27986;BMP280;15453;53.692;10.168;2023-06-14T06:55:02;101760.06;;;21.82
27986;BMP280;15453;53.692;10.168;2023-06-14T06:57:28;101756.69;;;21.85
27986;BMP280;15453;53.692;10.168;2023-06-14T06:59:54;101763.16;;;21.99
27986;BMP280;15453;53.692;10.168;2023-06-14T07:02:19;101763.16;;;21.99
27986;BMP280;15453;53.692;10.168;2023-06-14T07:04:44;101758.44;;;22.00
27986;BMP280;15453;53.692;10.168;2023-06-14T07:07:10;101767.22;;;22.07
27986;BMP280;15453;53.692;10.168;2023-06-14T07:09:35;101761.91;;;22.11
27986;BMP280;15453;53.692;10.168;2023-06-14T07:12:01;101762.63;;;22.16
27986;BMP280;15453;53.692;10.168;2023-06-14T07:14:26;101769.50;;;22.24
27986;BMP280;15453;53.692;10.168;2023-06-14T07:16:52;101763.84;;;22.29
27986;BMP280;15453;53.692;10.168;2023-06-14T07:19:17;101775.22;;;22.32
27986;BMP280;15453;53.692;10.168;2023-06-14T07:21:42;101774.84;;;22.39
27986;BMP280;15453;53.692;10.168;2023-06-14T07:24:08;101770.84;;;22.45
27986;BMP280;15453;53.692;10.168;2023-06-14T07:26:33;101773.59;;;22.50
27986;BMP280;15453;53.692;10.168;2023-06-14T07:28:58;101771.56;;;22.55
27986;BMP280;15453;53.692;10.168;2023-06-14T07:31:24;101772.31;;;22.61
27986;BMP280;15453;53.692;10.168;2023-06-14T07:33:50;101768.28;;;22.67
27986;BMP280;15453;53.692;10.168;2023-06-14T07:36:15;101767.88;;;22.73
27986;BMP280;15453;53.692;10.168;2023-06-14T07:38:42;101769.59;;;22.88
27986;BMP280;15453;53.692;10.168;2023-06-14T07:41:08;101775.91;;;22.93
27986;BMP280;15453;53.692;10.168;2023-06-14T07:43:33;101775.91;;;22.93
27986;BMP280;15453;53.692;10.168;2023-06-14T07:45:58;101774.28;;;23.06
27986;BMP280;15453;53.692;10.168;2023-06-14T07:48:23;101774.28;;;23.06
27986;BMP280;15453;53.692;10.168;2023-06-14T07:50:49;101765.09;;;23.05
27986;BMP280;15453;53.692;10.168;2023-06-14T07:53:14;101767.78;;;23.10
27986;BMP280;15453;53.692;10.168;2023-06-14T07:55:39;101775.25;;;23.15
27986;BMP280;15453;53.692;10.168;2023-06-14T07:58:07;101768.44;;;23.21
27986;BMP280;15453;53.692;10.168;2023-06-14T08:00:32;101766.88;;;23.28
27986;BMP280;15453;53.692;10.168;2023-06-14T08:02:58;101764.53;;;23.35
27986;BMP280;15453;53.692;10.168;2023-06-14T08:05:25;101768.25;;;23.44
27986;BMP280;15453;53.692;10.168;2023-06-14T08:07:51;101772.63;;;23.50
27986;BMP280;15453;53.692;10.168;2023-06-14T08:10:16;101778.91;;;23.56
27986;BMP280;15453;53.692;10.168;2023-06-14T08:12:41;101767.31;;;23.62
27986;BMP280;15453;53.692;10.168;2023-06-14T08:15:07;101767.53;;;23.66
27986;BMP280;15453;53.692;10.168;2023-06-14T08:17:33;101767.91;;;23.73
27986;BMP280;15453;53.692;10.168;2023-06-14T08:19:58;101763.88;;;23.79
27986;BMP280;15453;53.692;10.168;2023-06-14T08:22:24;101762.63;;;23.85
27986;BMP280;15453;53.692;10.168;2023-06-14T08:24:50;101761.09;;;23.92
27986;BMP280;15453;53.692;10.168;2023-06-14T08:27:15;101762.94;;;23.97
27986;BMP280;15453;53.692;10.168;2023-06-14T08:29:40;101768.94;;;24.04
27986;BMP280;15453;53.692;10.168;2023-06-14T08:32:07;101764.66;;;24.20
27986;BMP280;15453;53.692;10.168;2023-06-14T08:34:32;101764.66;;;24.20
27986;BMP280;15453;53.692;10.168;2023-06-14T08:37:00;101752.13;;;24.17
27986;BMP280;15453;53.692;10.168;2023-06-14T08:39:26;101767.44;;;24.33
27986;BMP280;15453;53.692;10.168;2023-06-14T08:41:52;101767.44;;;24.33
27986;BMP280;15453;53.692;10.168;2023-06-14T08:44:17;101761.84;;;24.33
27986;BMP280;15453;53.692;10.168;2023-06-14T08:46:43;101755.78;;;24.40
27986;BMP280;15453;53.692;10.168;2023-06-14T08:49:11;101768.00;;;24.44
27986;BMP280;15453;53.692;10.168;2023-06-14T08:51:37;101769.84;;;24.48
27986;BMP280;15453;53.692;10.168;2023-06-14T08:54:02;101761.53;;;24.57
27986;BMP280;15453;53.692;10.168;2023-06-14T08:56:30;101751.03;;;24.62
27986;BMP280;15453;53.692;10.168;2023-06-14T08:58:56;101760.97;;;24.68
27986;BMP280;15453;53.692;10.168;2023-06-14T09:01:22;101761.38;;;24.75
27986;BMP280;15453;53.692;10.168;2023-06-14T09:03:49;101763.19;;;24.80
27986;BMP280;15453;53.692;10.168;2023-06-14T09:06:15;101751.84;;;24.85
27986;BMP280;15453;53.692;10.168;2023-06-14T09:08:44;101752.69;;;24.85
27986;BMP280;15453;53.692;10.168;2023-06-14T09:11:13;101764.75;;;24.94
27986;BMP280;15453;53.692;10.168;2023-06-14T09:13:40;101761.00;;;24.99
27986;BMP280;15453;53.692;10.168;2023-06-14T09:16:06;101754.09;;;25.05
27986;BMP280;15453;53.692;10.168;2023-06-14T09:18:40;101764.06;;;25.11
27986;BMP280;15453;53.692;10.168;2023-06-14T09:21:10;101757.47;;;25.15
27986;BMP280;15453;53.692;10.168;2023-06-14T09:23:36;101756.69;;;25.23
27986;BMP280;15453;53.692;10.168;2023-06-14T09:26:06;101759.31;;;25.20
27986;BMP280;15453;53.692;10.168;2023-06-14T09:28:31;101763.03;;;25.37
27986;BMP280;15453;53.692;10.168;2023-06-14T09:30:57;101761.91;;;25.47
27986;BMP280;15453;53.692;10.168;2023-06-14T09:33:22;101758.97;;;25.52
27986;BMP280;15453;53.692;10.168;2023-06-14T09:35:51;101761.97;;;25.55
27986;BMP280;15453;53.692;10.168;2023-06-14T09:38:16;101758.53;;;25.58
27986;BMP280;15453;53.692;10.168;2023-06-14T09:40:41;101755.88;;;25.62
27986;BMP280;15453;53.692;10.168;2023-06-14T09:43:07;101753.06;;;25.70
27986;BMP280;15453;53.692;10.168;2023-06-14T09:45:36;101760.22;;;25.76
27986;BMP280;15453;53.692;10.168;2023-06-14T09:48:04;101747.34;;;25.84
27986;BMP280;15453;53.692;10.168;2023-06-14T09:50:30;101749.19;;;25.88
27986;BMP280;15453;53.692;10.168;2023-06-14T09:53:02;101745.69;;;25.91
27986;BMP280;15453;53.692;10.168;2023-06-14T09:55:28;101746.59;;;26.09
27986;BMP280;15453;53.692;10.168;2023-06-14T09:57:56;101746.59;;;26.09
27986;BMP280;15453;53.692;10.168;2023-06-14T10:00:23;101753.84;;;26.10
27986;BMP280;15453;53.692;10.168;2023-06-14T10:02:55;101742.13;;;26.16
27986;BMP280;15453;53.692;10.168;2023-06-14T10:05:27;101743.97;;;26.21
27986;BMP280;15453;53.692;10.168;2023-06-14T10:07:59;101737.84;;;26.27
27986;BMP280;15453;53.692;10.168;2023-06-14T10:10:25;101738.34;;;26.38
27986;BMP280;15453;53.692;10.168;2023-06-14T10:12:51;101731.75;;;26.42
27986;BMP280;15453;53.692;10.168;2023-06-14T10:15:20;101734.03;;;26.49
27986;BMP280;15453;53.692;10.168;2023-06-14T10:17:59;101731.41;;;26.61
27986;BMP280;15453;53.692;10.168;2023-06-14T10:20:35;101732.41;;;26.65
27986;BMP280;15453;53.692;10.168;2023-06-14T10:23:13;101734.53;;;26.77
27986;BMP280;15453;53.692;10.168;2023-06-14T10:25:42;101727.88;;;26.81
27986;BMP280;15453;53.692;10.168;2023-06-14T10:28:20;101733.03;;;26.88
27986;BMP280;15453;53.692;10.168;2023-06-14T10:31:02;101743.91;;;26.98
27986;BMP280;15453;53.692;10.168;2023-06-14T10:33:31;101743.91;;;26.98
27986;BMP280;15453;53.692;10.168;2023-06-14T10:36:09;101735.59;;;27.01
27986;BMP280;15453;53.692;10.168;2023-06-14T10:38:36;101743.72;;;27.03
27986;BMP280;15453;53.692;10.168;2023-06-14T10:41:03;101724.00;;;27.11
27986;BMP280;15453;53.692;10.168;2023-06-14T10:43:28;101732.44;;;27.20
27986;BMP280;15453;53.692;10.168;2023-06-14T10:48:41;101725.47;;;27.26
27986;BMP280;15453;53.692;10.168;2023-06-14T10:51:15;101726.78;;;27.28
27986;BMP280;15453;53.692;10.168;2023-06-14T10:53:45;101725.47;;;27.26
27986;BMP280;15453;53.692;10.168;2023-06-14T10:56:23;101721.50;;;27.27
27986;BMP280;15453;53.692;10.168;2023-06-14T10:58:49;101721.50;;;27.27
27986;BMP280;15453;53.692;10.168;2023-06-14T11:01:16;101716.69;;;27.27
27986;BMP280;15453;53.692;10.168;2023-06-14T11:03:50;101715.66;;;27.32
27986;BMP280;15453;53.692;10.168;2023-06-14T11:06:21;101716.19;;;27.34
27986;BMP280;15453;53.692;10.168;2023-06-14T11:10:10;101719.13;;;27.37
27986;BMP280;15453;53.692;10.168;2023-06-14T11:12:09;101709.56;;;27.30
27986;BMP280;15453;53.692;10.168;2023-06-14T11:14:35;101706.56;;;27.35
27986;BMP280;15453;53.692;10.168;2023-06-14T11:17:01;101711.34;;;27.34
27986;BMP280;15453;53.692;10.168;2023-06-14T11:19:26;101708.53;;;27.34
27986;BMP280;15453;53.692;10.168;2023-06-14T11:21:54;101704.22;;;27.37
27986;BMP280;15453;53.692;10.168;2023-06-14T11:24:19;101696.41;;;27.42
27986;BMP280;15453;53.692;10.168;2023-06-14T11:26:47;101700.34;;;27.50
27986;BMP280;15453;53.692;10.168;2023-06-14T11:29:14;101699.63;;;27.61
27986;BMP280;15453;53.692;10.168;2023-06-14T11:31:43;101697.09;;;27.68
27986;BMP280;15453;53.692;10.168;2023-06-14T11:34:09;101694.91;;;27.74
27986;BMP280;15453;53.692;10.168;2023-06-14T11:36:34;101687.91;;;27.80
27986;BMP280;15453;53.692;10.168;2023-06-14T11:39:01;101682.91;;;27.85
27986;BMP280;15453;53.692;10.168;2023-06-14T11:41:39;101688.50;;;27.94
27986;BMP280;15453;53.692;10.168;2023-06-14T11:44:05;101681.13;;;28.01
27986;BMP280;15453;53.692;10.168;2023-06-14T11:46:31;101688.69;;;28.09
27986;BMP280;15453;53.692;10.168;2023-06-14T11:48:56;101680.53;;;28.16
27986;BMP280;15453;53.692;10.168;2023-06-14T11:51:21;101687.13;;;28.20
27986;BMP280;15453;53.692;10.168;2023-06-14T11:53:47;101682.78;;;28.23
27986;BMP280;15453;53.692;10.168;2023-06-14T11:56:13;101686.78;;;28.22
27986;BMP280;15453;53.692;10.168;2023-06-14T11:58:38;101685.47;;;28.19
27986;BMP280;15453;53.692;10.168;2023-06-14T12:01:07;101682.50;;;28.16
27986;BMP280;15453;53.692;10.168;2023-06-14T12:03:32;101677.44;;;28.09
27986;BMP280;15453;53.692;10.168;2023-06-14T12:06:08;101674.16;;;28.07
27986;BMP280;15453;53.692;10.168;2023-06-14T12:08:35;101668.03;;;28.05
27986;BMP280;15453;53.692;10.168;2023-06-14T12:11:04;101674.28;;;28.11
27986;BMP280;15453;53.692;10.168;2023-06-14T12:13:29;101672.41;;;28.15
27986;BMP280;15453;53.692;10.168;2023-06-14T12:15:56;101671.25;;;28.16
27986;BMP280;15453;53.692;10.168;2023-06-14T12:18:31;101664.78;;;28.15
27986;BMP280;15453;53.692;10.168;2023-06-14T12:20:58;101672.06;;;28.16
27986;BMP280;15453;53.692;10.168;2023-06-14T12:23:47;101657.50;;;28.14
27986;BMP280;15453;53.692;10.168;2023-06-14T12:26:14;101674.00;;;28.24
27986;BMP280;15453;53.692;10.168;2023-06-14T12:28:40;101674.00;;;28.24
27986;BMP280;15453;53.692;10.168;2023-06-14T12:31:07;101670.94;;;28.29
27986;BMP280;15453;53.692;10.168;2023-06-14T12:33:32;101667.13;;;28.34
27986;BMP280;15453;53.692;10.168;2023-06-14T12:35:57;101666.25;;;28.42
27986;BMP280;15453;53.692;10.168;2023-06-14T12:38:24;101652.03;;;28.50
27986;BMP280;15453;53.692;10.168;2023-06-14T12:40:49;101657.72;;;28.62
27986;BMP280;15453;53.692;10.168;2023-06-14T12:43:14;101658.09;;;28.73
27986;BMP280;15453;53.692;10.168;2023-06-14T12:45:39;101661.63;;;28.82
27986;BMP280;15453;53.692;10.168;2023-06-14T12:48:05;101653.53;;;28.92
27986;BMP280;15453;53.692;10.168;2023-06-14T12:50:30;101659.56;;;29.03
27986;BMP280;15453;53.692;10.168;2023-06-14T12:52:55;101662.53;;;29.06
27986;BMP280;15453;53.692;10.168;2023-06-14T12:55:20;101659.00;;;29.09
27986;BMP280;15453;53.692;10.168;2023-06-14T12:57:46;101660.53;;;29.07
27986;BMP280;15453;53.692;10.168;2023-06-14T13:00:11;101661.59;;;29.02
27986;BMP280;15453;53.692;10.168;2023-06-14T13:02:38;101659.13;;;29.01
27986;BMP280;15453;53.692;10.168;2023-06-14T13:05:03;101655.47;;;29.00
27986;BMP280;15453;53.692;10.168;2023-06-14T13:07:29;101645.38;;;28.99
27986;BMP280;15453;53.692;10.168;2023-06-14T13:09:54;101645.81;;;29.01
27986;BMP280;15453;53.692;10.168;2023-06-14T13:12:20;101646.66;;;29.02
27986;BMP280;15453;53.692;10.168;2023-06-14T13:14:45;101649.50;;;29.14
27986;BMP280;15453;53.692;10.168;2023-06-14T13:17:10;101649.50;;;29.14
27986;BMP280;15453;53.692;10.168;2023-06-14T13:19:36;101652.06;;;29.19
27986;BMP280;15453;53.692;10.168;2023-06-14T13:22:02;101633.25;;;29.23
27986;BMP280;15453;53.692;10.168;2023-06-14T13:24:27;101646.78;;;29.29
27986;BMP280;15453;53.692;10.168;2023-06-14T13:26:54;101641.72;;;29.35
27986;BMP280;15453;53.692;10.168;2023-06-14T13:29:20;101636.53;;;29.37
27986;BMP280;15453;53.692;10.168;2023-06-14T13:31:45;101646.53;;;29.46
27986;BMP280;15453;53.692;10.168;2023-06-14T13:34:11;101646.53;;;29.46
27986;BMP280;15453;53.692;10.168;2023-06-14T13:36:36;101640.88;;;29.46
27986;BMP280;15453;53.692;10.168;2023-06-14T13:39:02;101637.81;;;29.51
27986;BMP280;15453;53.692;10.168;2023-06-14T13:41:28;101637.81;;;29.51
27986;BMP280;15453;53.692;10.168;2023-06-14T13:43:57;101632.16;;;29.51
27986;BMP280;15453;53.692;10.168;2023-06-14T13:46:23;101635.47;;;29.53
27986;BMP280;15453;53.692;10.168;2023-06-14T13:48:49;101647.13;;;29.52